Time;durP1;ratioP1;P1;durP2;ratioP2;P2;SDS_P1;SDS_P2;PMS_P1;PMS_P2;Temp;Humidity;BMP_temperature;BMP_pressure;BME280_temperature;BME280_humidity;BME280_pressure;Samples;Min_cycle;Max_cycle;Signal;HPM_P1;HPM_P2
2022/03/28 00:02:12;;;;;;;11.30;4.50;;;;;;;10.29;62.54;101261.28;5056565;28;20060;-76
2022/03/28 00:04:38;;;;;;;13.17;5.17;;;;;;;10.34;61.50;101258.03;5055990;28;20122;-76
2022/03/28 00:07:03;;;;;;;13.87;5.40;;;;;;;10.26;62.31;101260.78;5055951;28;20472;-77
2022/03/28 00:09:28;;;;;;;12.68;4.82;;;;;;;10.35;62.08;101257.84;5056713;28;20090;-76
2022/03/28 00:11:54;;;;;;;13.40;4.47;;;;;;;10.26;62.63;101252.72;5056417;28;20033;-76
2022/03/28 00:14:20;;;;;;;13.98;4.93;;;;;;;10.36;61.58;101247.91;5056027;28;20041;-76
2022/03/28 00:16:46;;;;;;;12.55;5.43;;;;;;;10.41;61.37;101245.50;5055963;28;20129;-76
2022/03/28 00:19:11;;;;;;;19.17;4.90;;;;;;;10.46;61.31;101244.94;5056012;28;20079;-76
2022/03/28 00:21:37;;;;;;;13.98;4.88;;;;;;;10.41;61.42;101240.94;5056222;28;20040;-77
2022/03/28 00:24:03;;;;;;;13.80;5.15;;;;;;;10.48;61.75;101235.66;5055976;28;20029;-77
2022/03/28 00:26:28;;;;;;;13.27;5.22;;;;;;;10.44;61.04;101237.88;5056141;28;20451;-77
2022/03/28 00:28:54;;;;;;;12.18;5.22;;;;;;;10.39;61.77;101234.91;5056545;28;20062;-77
2022/03/28 00:31:19;;;;;;;12.93;4.60;;;;;;;10.37;61.45;101233.44;5062047;28;20435;-76
2022/03/28 00:33:45;;;;;;;10.77;4.60;;;;;;;10.43;61.34;101229.97;5063815;28;20375;-76
2022/03/28 00:36:11;;;;;;;;;;;;;;;10.24;61.80;101235.91;5060541;28;20467;-77
2022/03/28 00:38:36;;;;;;;15.23;6.43;;;;;;;10.18;62.47;101228.53;5058952;28;19916;-77
2022/03/28 00:41:02;;;;;;;13.93;5.95;;;;;;;10.05;62.58;101226.44;5056513;28;20044;-76
2022/03/28 00:43:27;;;;;;;14.45;4.82;;;;;;;10.16;62.42;101223.31;5037996;28;20044;-77
2022/03/28 00:45:53;;;;;;;12.32;5.10;;;;;;;10.06;63.16;101220.03;5055715;28;20033;-77
2022/03/28 00:48:18;;;;;;;12.23;5.37;;;;;;;10.07;62.66;101221.72;5055251;28;20041;-76
2022/03/28 00:50:43;;;;;;;15.63;5.25;;;;;;;10.02;63.24;101208.81;5055235;28;20039;-77
2022/03/28 00:53:11;;;;;;;12.80;4.97;;;;;;;10.00;63.30;101216.25;5055685;28;20021;-77
2022/03/28 00:55:37;;;;;;;13.95;5.60;;;;;;;9.86;63.84;101216.16;5055528;28;20071;-77
2022/03/28 00:58:03;;;;;;;10.75;4.63;;;;;;;9.84;63.47;101218.22;5055461;28;20028;-77
2022/03/28 01:00:28;;;;;;;13.52;5.15;;;;;;;9.85;63.47;101207.28;5056040;28;20037;-77
2022/03/28 01:02:54;;;;;;;12.77;5.40;;;;;;;9.80;63.79;101206.97;5055209;28;20055;-77
2022/03/28 01:05:20;;;;;;;10.85;5.10;;;;;;;9.68;64.51;101209.25;5054907;28;20295;-77
2022/03/28 01:07:46;;;;;;;15.05;5.32;;;;;;;9.78;63.77;101200.09;5055452;28;20032;-77
2022/03/28 01:10:11;;;;;;;16.38;5.88;;;;;;;9.72;63.73;101191.72;5055415;28;20061;-76
2022/03/28 01:12:42;;;;;;;16.65;6.22;;;;;;;9.66;64.30;101197.00;5054985;28;20060;-77
2022/03/28 01:15:09;;;;;;;12.75;4.90;;;;;;;9.67;63.95;101190.63;5054894;28;20037;-77
2022/03/28 01:20:18;;;;;;;12.18;4.95;;;;;;;9.54;64.09;101198.44;5055475;28;20075;-77
2022/03/28 01:22:43;;;;;;;11.50;4.77;;;;;;;9.44;64.75;101189.78;5058934;28;20017;-77
2022/03/28 01:25:09;;;;;;;12.47;5.00;;;;;;;9.40;65.23;101182.06;5059263;28;20048;-77
2022/03/28 01:27:38;;;;;;;12.80;4.93;;;;;;;9.38;65.01;101184.06;5037827;28;20641;-77
2022/03/28 01:30:04;;;;;;;12.00;4.45;;;;;;;9.39;64.86;101179.53;5055040;28;20274;-77
2022/03/28 01:32:30;;;;;;;12.45;4.88;;;;;;;9.35;65.37;101173.66;5055404;28;20037;-77
2022/03/28 01:34:55;;;;;;;12.25;4.90;;;;;;;9.50;64.91;101159.44;5054874;28;20033;-76
2022/03/28 01:37:20;;;;;;;11.13;4.60;;;;;;;9.42;64.98;101164.91;5054839;28;20461;-77
2022/03/28 01:39:46;;;;;;;13.70;5.53;;;;;;;9.33;65.31;101161.41;5054594;28;20772;-76
2022/03/28 01:42:11;;;;;;;10.90;4.63;;;;;;;9.35;65.30;101160.22;5054837;28;20037;-76
2022/03/28 01:44:36;;;;;;;16.90;5.70;;;;;;;9.29;66.00;101157.44;5054462;28;20104;-76
2022/03/28 01:47:02;;;;;;;15.57;5.10;;;;;;;9.20;66.25;101159.31;5036618;28;20111;-77
2022/03/28 01:49:27;;;;;;;10.82;5.00;;;;;;;9.31;66.13;101155.41;5055033;28;20061;-77
2022/03/28 01:51:53;;;;;;;14.47;5.40;;;;;;;9.28;66.23;101158.44;5057054;28;20025;-77
2022/03/28 01:54:18;;;;;;;12.60;5.07;;;;;;;9.17;66.14;101154.28;5055485;28;20724;-77
2022/03/28 01:56:44;;;;;;;11.57;4.77;;;;;;;9.26;66.32;101155.09;5037722;28;20275;-77
2022/03/28 01:59:10;;;;;;;12.80;5.10;;;;;;;9.10;66.60;101150.66;5054762;28;20051;-77
2022/03/28 02:01:36;;;;;;;13.27;5.30;;;;;;;9.15;66.33;101148.25;5054818;28;20033;-76
2022/03/28 02:04:02;;;;;;;11.80;4.75;;;;;;;9.07;66.67;101136.72;5057049;28;20052;-77
2022/03/28 02:06:28;;;;;;;12.18;5.05;;;;;;;9.12;66.52;101140.56;5063225;28;20037;-77
2022/03/28 02:08:53;;;;;;;10.70;4.60;;;;;;;9.13;66.13;101136.88;5068323;28;20029;-77
2022/03/28 02:11:19;;;;;;;13.70;5.43;;;;;;;9.08;66.34;101136.56;5060267;28;20061;-77
2022/03/28 02:13:44;;;;;;;11.57;5.10;;;;;;;9.08;66.93;101141.09;5056675;28;20037;-77
2022/03/28 02:16:10;;;;;;;13.18;5.22;;;;;;;9.05;66.89;101142.28;5036806;28;20037;-77
2022/03/28 02:18:38;;;;;;;10.98;4.43;;;;;;;8.87;67.62;101131.81;5054412;28;20037;-77
2022/03/28 02:21:04;;;;;;;12.70;5.55;;;;;;;8.85;67.25;101133.00;5036717;28;20079;-77
2022/03/28 02:23:29;;;;;;;;;;;;;;;8.76;68.44;101126.00;5054768;28;20028;-77
2022/03/28 02:25:54;;;;;;;10.57;4.25;;;;;;;8.76;68.25;101123.31;5056103;28;20007;-77
2022/03/28 02:28:20;;;;;;;10.87;4.60;;;;;;;8.70;68.27;101125.69;5060177;28;20035;-77
2022/03/28 02:30:45;;;;;;;12.27;5.13;;;;;;;8.63;68.75;101122.00;5055383;28;20483;-77
2022/03/28 02:33:11;;;;;;;10.48;4.30;;;;;;;8.75;68.13;101121.63;5054427;28;20852;-76
2022/03/28 02:35:36;;;;;;;11.43;4.57;;;;;;;8.82;68.14;101110.00;5053976;28;20044;-77
2022/03/28 02:38:02;;;;;;;13.00;5.18;;;;;;;8.88;67.59;101109.28;5054141;28;20343;-76
2022/03/28 02:40:28;;;;;;;10.90;4.10;;;;;;;8.66;68.81;101102.84;5053735;28;20063;-77
2022/03/28 02:42:57;;;;;;;10.45;4.18;;;;;;;8.65;69.02;101101.19;5054017;28;20076;-76
2022/03/28 02:45:23;;;;;;;11.80;4.63;;;;;;;8.61;68.54;101099.00;5035956;28;20044;-77
2022/03/28 02:47:49;;;;;;;12.80;4.72;;;;;;;8.64;68.52;101104.88;5053440;28;20167;-77
2022/03/28 02:50:14;;;;;;;14.43;5.77;;;;;;;8.56;69.03;101098.72;5053439;28;20485;-76
2022/03/28 02:52:39;;;;;;;17.17;5.97;;;;;;;8.61;69.04;101093.63;5053952;28;20455;-77
2022/03/28 02:55:05;;;;;;;13.60;5.60;;;;;;;8.53;69.34;101099.06;5054124;28;20263;-77
2022/03/28 02:57:31;;;;;;;12.15;5.50;;;;;;;8.54;69.52;101098.91;5054125;28;20036;-77
2022/03/28 02:59:56;;;;;;;13.70;4.97;;;;;;;8.47;69.58;101095.22;5054308;28;20032;-77
2022/03/28 03:02:21;;;;;;;13.97;5.37;;;;;;;8.46;69.88;101090.88;5054537;28;20263;-77
2022/03/28 03:04:46;;;;;;;13.20;5.20;;;;;;;8.47;69.44;101087.16;5053896;28;20056;-78
2022/03/28 03:07:12;;;;;;;11.57;4.93;;;;;;;8.90;67.83;101088.47;5053499;28;20033;-78
2022/03/28 03:09:37;;;;;;;14.30;5.00;;;;;;;8.67;69.13;101085.72;5053839;28;20324;-77
2022/03/28 03:12:03;;;;;;;14.43;5.03;;;;;;;8.67;68.83;101085.72;5036197;28;20075;-77
2022/03/28 03:14:28;;;;;;;14.23;4.78;;;;;;;8.59;69.10;101083.09;5055924;28;20079;-78
2022/03/28 03:16:53;;;;;;;14.27;6.00;;;;;;;8.55;69.45;101079.09;5055829;28;20467;-77
2022/03/28 03:19:19;;;;;;;12.70;4.57;;;;;;;8.67;68.80;101072.28;5054267;28;20326;-77
2022/03/28 03:21:46;;;;;;;11.07;4.53;;;;;;;8.55;69.32;101073.72;5054058;28;20062;-77
2022/03/28 03:24:11;;;;;;;13.85;5.15;;;;;;;8.57;69.50;101070.84;5053867;28;20017;-77
2022/03/28 03:26:37;;;;;;;13.60;5.70;;;;;;;8.57;69.42;101065.47;5053235;28;20432;-77
2022/03/28 03:29:02;;;;;;;;;;;;;;;8.52;69.48;101057.94;5053642;28;20025;-78
2022/03/28 03:31:28;;;;;;;14.48;5.18;;;;;;;8.41;70.10;101062.88;5035873;28;19913;-77
2022/03/28 03:33:53;;;;;;;11.93;4.22;;;;;;;8.40;70.09;101056.66;5035768;28;20036;-78
2022/03/28 03:36:19;;;;;;;13.47;5.03;;;;;;;8.33;70.39;101056.53;5053393;28;20111;-77
2022/03/28 03:38:45;;;;;;;14.30;5.43;;;;;;;8.31;70.15;101055.00;5053141;28;20025;-77
2022/03/28 03:41:10;;;;;;;14.17;4.80;;;;;;;8.34;70.62;101058.19;5053672;28;20104;-77
2022/03/28 03:43:36;;;;;;;12.65;6.05;;;;;;;8.17;70.70;101070.00;5053358;28;20268;-76
2022/03/28 03:46:01;;;;;;;15.27;5.15;;;;;;;8.11;71.36;101067.16;5053049;28;20155;-75
2022/03/28 03:48:27;;;;;;;12.83;5.93;;;;;;;8.08;71.61;101054.91;5053002;28;20028;-77
2022/03/28 03:50:53;;;;;;;11.63;5.07;;;;;;;8.04;72.15;101053.59;5053415;28;20025;-77
2022/03/28 03:53:19;;;;;;;13.45;5.80;;;;;;;8.27;71.23;101053.66;5053465;28;20040;-77
2022/03/28 03:55:45;;;;;;;16.98;6.20;;;;;;;8.22;71.26;101046.16;5053100;28;20032;-77
2022/03/28 03:58:11;;;;;;;12.48;4.47;;;;;;;8.23;71.37;101052.34;5053271;28;20120;-76
2022/03/28 04:00:36;;;;;;;13.63;5.32;;;;;;;8.13;71.98;101046.34;5059073;28;20072;-77
2022/03/28 04:03:03;;;;;;;14.48;5.32;;;;;;;8.15;71.81;101045.16;5054964;28;20033;-76
2022/03/28 04:05:28;;;;;;;15.63;5.63;;;;;;;8.33;71.39;101044.94;5053488;28;20049;-76
2022/03/28 04:07:54;;;;;;;17.42;6.68;;;;;;;8.48;70.85;101043.19;5036438;28;20144;-76
2022/03/28 04:10:20;;;;;;;20.60;7.07;;;;;;;8.44;70.77;101039.16;5054655;28;20055;-76
2022/03/28 04:12:45;;;;;;;17.57;6.90;;;;;;;8.44;70.98;101038.34;5054338;28;20039;-77
2022/03/28 04:15:10;;;;;;;19.60;7.30;;;;;;;8.30;71.83;101042.56;5036919;28;20264;-76
2022/03/28 04:17:43;;;;;;;17.23;6.05;;;;;;;8.12;72.41;101044.66;5036104;28;20033;-76
2022/03/28 04:20:13;;;;;;;18.90;6.97;;;;;;;8.10;72.60;101031.41;5053891;28;20033;-76
2022/03/28 04:22:40;;;;;;;18.92;7.18;;;;;;;8.24;72.02;101036.03;5052640;28;20078;-76
2022/03/28 04:25:08;;;;;;;15.13;5.57;;;;;;;8.12;72.32;101034.75;5055737;28;20033;-77
2022/03/28 04:27:35;;;;;;;18.30;7.00;;;;;;;8.06;72.64;101040.81;5056297;28;20044;-76
2022/03/28 04:30:01;;;;;;;21.38;6.50;;;;;;;8.04;73.47;101048.22;5056209;28;20029;-76
2022/03/28 04:32:26;;;;;;;17.25;6.40;;;;;;;8.05;73.25;101038.34;5056419;28;20079;-76
2022/03/28 04:34:52;;;;;;;21.48;7.25;;;;;;;8.05;72.85;101035.66;5055992;28;20083;-76
2022/03/28 04:37:18;;;;;;;15.77;6.10;;;;;;;8.00;73.40;101042.38;5056228;28;20447;-76
2022/03/28 04:39:43;;;;;;;18.25;5.75;;;;;;;8.01;72.92;101041.38;5055863;28;20060;-77
2022/03/28 04:42:08;;;;;;;19.47;6.90;;;;;;;8.01;72.88;101044.03;5055754;28;20459;-77
2022/03/28 04:44:34;;;;;;;17.37;6.43;;;;;;;8.04;72.93;101036.66;5055835;28;20390;-76
2022/03/28 04:46:59;;;;;;;16.60;6.20;;;;;;;8.01;72.96;101038.69;5056310;28;20268;-75
2022/03/28 04:49:24;;;;;;;20.07;7.73;;;;;;;8.00;72.92;101031.63;5056249;28;20039;-76
2022/03/28 04:51:50;;;;;;;13.20;6.17;;;;;;;8.00;73.15;101045.06;5055550;28;20062;-76
2022/03/28 04:54:15;;;;;;;16.27;6.37;;;;;;;7.99;73.61;101043.38;5055579;28;20084;-77
2022/03/28 04:56:43;;;;;;;17.20;6.07;;;;;;;7.96;73.35;101038.34;5055770;28;20490;-77
2022/03/28 04:59:09;;;;;;;19.30;5.93;;;;;;;7.94;73.71;101037.69;5055745;28;20029;-77
2022/03/28 05:01:34;;;;;;;17.88;7.28;;;;;;;7.96;73.50;101038.34;5056141;28;20087;-77
2022/03/28 05:04:00;;;;;;;16.20;6.30;;;;;;;7.88;73.77;101046.41;5037649;28;20053;-76
2022/03/28 05:06:25;;;;;;;18.73;6.57;;;;;;;7.89;73.51;101041.88;5056215;28;20717;-76
2022/03/28 05:08:50;;;;;;;19.17;6.40;;;;;;;7.89;73.59;101045.41;5058280;28;20634;-77
2022/03/28 05:11:16;;;;;;;17.58;6.55;;;;;;;7.96;73.34;101041.03;5055417;28;20081;-77
2022/03/28 05:13:41;;;;;;;14.23;6.50;;;;;;;8.00;73.12;101036.16;5055441;28;20383;-77
2022/03/28 05:16:06;;;;;;;13.90;5.30;;;;;;;7.98;73.18;101035.50;5055333;28;20259;-77
2022/03/28 05:18:32;;;;;;;15.50;6.53;;;;;;;7.92;73.98;101034.34;5055623;28;20033;-76
2022/03/28 05:20:57;;;;;;;19.75;7.35;;;;;;;7.82;73.37;101039.06;5055101;28;20303;-76
2022/03/28 05:23:23;;;;;;;16.27;5.72;;;;;;;7.86;73.33;101035.03;5037151;28;20116;-76
2022/03/28 05:25:48;;;;;;;18.70;5.43;;;;;;;7.75;74.29;101031.88;5037277;28;20409;-77
2022/03/28 05:28:13;;;;;;;17.57;6.00;;;;;;;7.64;74.40;101033.09;5056574;28;20052;-78
2022/03/28 05:30:39;;;;;;;17.27;5.57;;;;;;;7.61;74.70;101014.66;5056395;28;20469;-78
2022/03/28 05:33:04;;;;;;;11.63;4.80;;;;;;;7.58;74.82;101021.19;5056180;28;20393;-78
2022/03/28 05:35:30;;;;;;;13.75;5.22;;;;;;;7.52;74.84;101021.03;5055222;28;20062;-78
2022/03/28 05:37:56;;;;;;;16.60;5.40;;;;;;;7.66;74.99;101013.13;5057003;28;20037;-78
2022/03/28 05:40:21;;;;;;;12.87;5.40;;;;;;;7.32;75.77;101017.88;5038462;28;20340;-78
2022/03/28 05:42:47;;;;;;;13.05;5.25;;;;;;;7.37;76.99;101018.19;5055696;28;20035;-77
2022/03/28 05:45:12;;;;;;;14.35;5.53;;;;;;;7.41;75.60;101019.53;5055374;28;20043;-77
2022/03/28 05:47:39;;;;;;;14.88;5.63;;;;;;;7.28;76.12;101013.88;5055825;28;20055;-78
2022/03/28 05:50:06;;;;;;;18.40;6.20;;;;;;;7.07;76.40;101024.25;5038209;28;20063;-78
2022/03/28 05:52:31;;;;;;;16.13;5.57;;;;;;;7.24;75.87;101023.25;5037535;28;20025;-78
2022/03/28 05:54:57;;;;;;;16.40;6.05;;;;;;;7.20;75.87;101022.72;5037423;28;20036;-79
2022/03/28 05:57:22;;;;;;;16.70;6.00;;;;;;;7.09;75.99;101025.75;5055601;28;20044;-77
2022/03/28 05:59:48;;;;;;;17.83;5.77;;;;;;;7.06;76.93;101027.94;5055385;28;20101;-77
2022/03/28 06:02:13;;;;;;;16.95;6.10;;;;;;;6.98;77.16;101028.78;5055073;28;20037;-78
2022/03/28 06:04:39;;;;;;;16.23;5.47;;;;;;;6.94;77.73;101022.09;5055560;28;20140;-78
2022/03/28 06:07:04;;;;;;;18.80;7.13;;;;;;;7.25;76.58;101019.56;5055902;28;20400;-78
2022/03/28 06:09:30;;;;;;;16.50;6.78;;;;;;;7.19;77.11;101017.53;5054847;28;20377;-78
2022/03/28 06:11:55;;;;;;;16.33;6.27;;;;;;;7.29;76.69;101011.00;5055314;28;20450;-77
2022/03/28 06:14:20;;;;;;;17.13;6.07;;;;;;;7.32;75.99;101013.38;5037778;28;20528;-77
2022/03/28 06:16:46;;;;;;;18.17;6.70;;;;;;;7.42;76.20;101015.00;5054632;28;20077;-78
2022/03/28 06:19:11;;;;;;;16.08;6.68;;;;;;;7.67;75.31;101011.28;5037573;28;20279;-78
2022/03/28 06:21:37;;;;;;;21.50;6.93;;;;;;;7.64;75.32;101008.94;5054966;28;20036;-79
2022/03/28 06:24:03;;;;;;;19.70;6.65;;;;;;;7.49;76.04;101010.66;5037659;28;20033;-78
2022/03/28 06:26:29;;;;;;;17.80;8.02;;;;;;;7.68;74.86;101022.84;5056822;28;20040;-80
2022/03/28 06:28:54;;;;;;;19.60;7.47;;;;;;;7.81;74.70;101020.47;5055999;28;20074;-79
2022/03/28 06:31:20;;;;;;;14.18;5.57;;;;;;;8.05;74.36;101019.56;5055979;28;20037;-77
2022/03/28 06:33:45;;;;;;;29.73;7.63;;;;;;;8.02;73.92;101018.03;5055297;28;20685;-78
2022/03/28 06:36:10;;;;;;;16.13;7.33;;;;;;;7.99;74.37;101010.34;5054732;28;20077;-78
2022/03/28 06:38:36;;;;;;;18.00;6.43;;;;;;;8.09;73.89;101004.75;5054955;28;20366;-78
2022/03/28 06:41:02;;;;;;;21.40;7.53;;;;;;;8.17;73.38;101002.03;5055130;28;20033;-78
2022/03/28 06:43:28;;;;;;;17.08;6.80;;;;;;;8.06;73.98;101003.25;5036782;28;20048;-78
2022/03/28 06:45:53;;;;;;;17.00;6.43;;;;;;;8.15;73.01;101007.59;5055040;28;20029;-78
2022/03/28 06:48:20;;;;;;;17.40;6.75;;;;;;;8.17;73.60;101005.56;5054223;28;20017;-77
2022/03/28 06:50:45;;;;;;;21.63;6.70;;;;;;;8.45;72.56;101002.41;5036806;28;20067;-77
2022/03/28 06:53:11;;;;;;;23.95;7.43;;;;;;;8.39;72.78;101003.97;5054564;28;20036;-77
2022/03/28 06:55:36;;;;;;;19.20;7.23;;;;;;;8.38;72.56;101007.69;5054208;28;20035;-77
2022/03/28 06:58:01;;;;;;;19.90;8.30;;;;;;;8.37;72.69;100994.41;5054038;28;20067;-77
2022/03/28 07:00:27;;;;;;;16.57;7.53;;;;;;;8.48;73.41;100997.53;5054007;28;20298;-77
2022/03/28 07:02:52;;;;;;;18.43;6.70;;;;;;;8.47;73.06;100990.47;5036096;28;20025;-78
2022/03/28 07:05:17;;;;;;;23.47;7.50;;;;;;;8.79;71.77;100993.97;5036250;28;20362;-77
2022/03/28 07:07:48;;;;;;;21.80;7.60;;;;;;;8.82;71.78;100988.22;5054564;28;20104;-77
2022/03/28 07:10:15;;;;;;;20.80;7.93;;;;;;;8.65;73.15;100982.97;5054069;28;20317;-77
2022/03/28 07:12:41;;;;;;;19.85;7.63;;;;;;;8.77;71.93;100982.59;5054484;28;20108;-78
2022/03/28 07:15:09;;;;;;;19.80;7.15;;;;;;;9.20;70.76;100981.84;5054371;28;20037;-79
2022/03/28 07:17:46;;;;;;;24.27;9.80;;;;;;;9.27;71.00;100981.97;5054327;28;20063;-78
2022/03/28 07:20:11;;;;;;;19.73;7.65;;;;;;;9.54;70.09;100981.34;5053658;28;20029;-78
2022/03/28 07:22:37;;;;;;;16.02;6.95;;;;;;;9.48;70.20;100979.41;5053897;28;20048;-77
2022/03/28 07:25:03;;;;;;;14.65;6.15;;;;;;;9.59;70.05;100964.66;5053447;28;20028;-78
2022/03/28 07:27:28;;;;;;;;;;;;;;;9.63;70.16;100976.72;5053643;28;20093;-78
2022/03/28 07:29:53;;;;;;;15.70;6.17;;;;;;;9.70;70.48;100970.41;5053160;28;20007;-77
2022/03/28 07:32:19;;;;;;;18.03;6.37;;;;;;;9.88;69.56;100961.09;5053437;28;20346;-78
2022/03/28 07:34:44;;;;;;;16.67;6.40;;;;;;;10.04;69.52;100964.44;5053678;28;20053;-78
2022/03/28 07:37:10;;;;;;;17.70;6.93;;;;;;;10.25;69.71;100970.94;5053865;28;20056;-79
2022/03/28 07:39:38;;;;;;;16.65;6.80;;;;;;;10.40;69.41;100969.84;5053973;28;20036;-78
2022/03/28 07:42:06;;;;;;;17.73;7.22;;;;;;;10.51;68.93;100968.53;5053853;28;20383;-78
2022/03/28 07:44:32;;;;;;;15.23;6.22;;;;;;;10.74;68.42;100963.81;5053580;28;20108;-78
2022/03/28 07:46:57;;;;;;;21.40;7.40;;;;;;;11.03;67.82;100962.81;5053608;28;20057;-78
2022/03/28 07:49:24;;;;;;;18.10;6.87;;;;;;;11.17;66.32;100958.34;5052927;28;20036;-77
2022/03/28 07:51:50;;;;;;;22.92;7.80;;;;;;;11.41;67.24;100955.22;5053260;28;20266;-77
2022/03/28 07:54:15;;;;;;;20.05;7.32;;;;;;;11.48;67.36;100953.38;5052833;28;20025;-78
2022/03/28 07:56:40;;;;;;;14.98;6.57;;;;;;;11.58;67.30;100954.91;5052939;28;20040;-78
2022/03/28 07:59:06;;;;;;;15.33;6.90;;;;;;;11.71;67.14;100939.63;5053944;28;20036;-78
2022/03/28 08:01:31;;;;;;;17.45;6.63;;;;;;;11.77;67.50;100940.72;5056402;28;20705;-78
2022/03/28 08:03:56;;;;;;;16.53;7.60;;;;;;;11.76;68.11;100948.00;5056289;28;20056;-77
2022/03/28 08:06:22;;;;;;;14.97;6.57;;;;;;;11.83;67.69;100945.31;5057187;28;20291;-77
2022/03/28 08:08:47;;;;;;;18.73;6.72;;;;;;;11.98;67.98;100935.22;5039452;28;20482;-77
2022/03/28 08:11:15;;;;;;;47.80;17.80;;;;;;;12.07;67.26;100930.47;5057236;28;20040;-77
2022/03/28 08:13:41;;;;;;;21.83;10.00;;;;;;;12.11;67.59;100934.44;5057278;28;20025;-77
2022/03/28 08:16:08;;;;;;;17.20;7.03;;;;;;;12.27;67.97;100935.94;5058282;28;20082;-77
2022/03/28 08:18:36;;;;;;;15.05;7.05;;;;;;;12.30;67.74;100922.03;5057949;28;20041;-78
2022/03/28 08:21:01;;;;;;;16.05;7.28;;;;;;;12.55;67.06;100931.19;5056053;28;20025;-77
2022/03/28 08:23:27;;;;;;;19.00;7.15;;;;;;;12.60;67.01;100917.91;5056263;28;20028;-77
2022/03/28 08:25:53;;;;;;;15.37;6.37;;;;;;;12.73;66.66;100919.78;5056047;28;20037;-78
2022/03/28 08:28:19;;;;;;;13.65;6.95;;;;;;;12.87;66.57;100924.19;5056454;28;20282;-77
2022/03/28 08:30:44;;;;;;;20.08;7.65;;;;;;;12.91;65.86;100924.59;5056088;28;20059;-78
2022/03/28 08:33:10;;;;;;;18.17;7.05;;;;;;;13.01;65.74;100911.50;5055990;28;20036;-78
2022/03/28 08:35:36;;;;;;;15.77;6.97;;;;;;;13.07;65.33;100910.66;5055372;28;20033;-77
2022/03/28 08:38:01;;;;;;;14.95;6.13;;;;;;;12.95;65.55;100913.16;5055673;28;20103;-76
2022/03/28 08:40:27;;;;;;;17.47;7.47;;;;;;;12.76;66.24;100909.41;5055652;28;20566;-78
2022/03/28 08:42:53;;;;;;;15.45;6.68;;;;;;;12.74;67.08;100910.63;5056340;28;20252;-77
2022/03/28 08:45:18;;;;;;;17.85;7.57;;;;;;;12.70;66.93;100906.72;5055757;28;20471;-77
2022/03/28 08:47:49;;;;;;;16.08;7.07;;;;;;;12.83;67.10;100912.94;5037933;28;20029;-78
2022/03/28 08:50:16;;;;;;;18.75;7.32;;;;;;;13.09;66.12;100900.44;5056448;28;20327;-79
2022/03/28 08:52:42;;;;;;;20.58;7.57;;;;;;;13.19;65.29;100899.03;5056909;28;20025;-78
2022/03/28 08:55:12;;;;;;;17.20;7.38;;;;;;;13.32;64.60;100900.88;5060660;28;20021;-79
2022/03/28 08:57:41;;;;;;;15.38;6.15;;;;;;;13.65;63.99;100900.78;5061181;28;20083;-78
2022/03/28 09:00:10;;;;;;;16.13;6.40;;;;;;;13.71;63.50;100907.22;5061201;28;20055;-78
2022/03/28 09:02:47;;;;;;;15.07;6.72;;;;;;;13.87;63.31;100901.31;5060131;28;20084;-79
2022/03/28 09:05:15;;;;;;;13.05;6.20;;;;;;;13.82;62.70;100898.41;5056041;28;20049;-77
2022/03/28 09:07:42;;;;;;;15.05;6.22;;;;;;;13.82;62.68;100899.25;5055155;28;20037;-77
2022/03/28 09:10:18;;;;;;;18.73;7.78;;;;;;;13.94;62.75;100902.13;5037238;28;20116;-77
2022/03/28 09:13:02;;;;;;;17.50;6.55;;;;;;;14.00;62.32;100901.25;5055840;28;20035;-79
2022/03/28 09:15:45;;;;;;;14.35;6.20;;;;;;;14.06;61.57;100891.44;5055459;28;20029;-77
2022/03/28 09:18:28;;;;;;;17.83;7.10;;;;;;;13.92;61.94;100893.38;5055309;28;20037;-77
2022/03/28 09:21:07;;;;;;;16.45;7.32;;;;;;;13.79;62.15;100890.75;5054881;28;20111;-77
2022/03/28 09:23:38;;;;;;;17.77;7.57;;;;;;;13.77;62.29;100882.84;5055306;28;20044;-77
2022/03/28 09:26:20;;;;;;;14.73;6.57;;;;;;;14.06;62.22;100884.16;5055305;28;20029;-78
2022/03/28 09:28:48;;;;;;;15.77;5.97;;;;;;;14.49;60.80;100881.63;5056586;28;20025;-78
2022/03/28 09:31:30;;;;;;;15.65;6.38;;;;;;;14.48;60.55;100881.84;5056390;28;20025;-77
2022/03/28 09:34:10;;;;;;;16.48;6.88;;;;;;;14.53;61.06;100874.69;5037347;28;20486;-77
2022/03/28 09:36:56;;;;;;;15.95;6.72;;;;;;;14.50;60.42;100874.34;5055900;28;20064;-77
2022/03/28 09:39:28;;;;;;;14.80;7.40;;;;;;;14.60;60.30;100871.94;5054935;28;20100;-78
2022/03/28 09:42:09;;;;;;;17.42;7.60;;;;;;;14.67;60.05;100866.47;5056481;28;20036;-77
2022/03/28 09:44:42;;;;;;;13.18;6.50;;;;;;;14.91;59.87;100866.47;5055447;28;20048;-77
2022/03/28 09:47:10;;;;;;;16.33;7.10;;;;;;;14.93;59.29;100858.94;5055443;28;20144;-78
2022/03/28 09:49:38;;;;;;;15.80;6.72;;;;;;;14.91;58.05;100861.03;5056966;28;20032;-78
2022/03/28 09:52:07;;;;;;;15.75;6.78;;;;;;;15.00;57.88;100858.06;5056314;28;20460;-78
2022/03/28 09:54:50;;;;;;;16.42;7.50;;;;;;;14.98;58.54;100855.56;5055574;28;20029;-77
2022/03/28 09:57:27;;;;;;;18.90;6.57;;;;;;;14.96;57.91;100851.41;5055334;28;20028;-77
2022/03/28 10:00:07;;;;;;;19.50;7.20;;;;;;;15.11;57.86;100854.59;5037774;28;20041;-77
2022/03/28 10:02:34;;;;;;;14.93;7.15;;;;;;;15.58;57.32;100845.75;5055916;28;20059;-77
2022/03/28 10:05:01;;;;;;;18.52;7.35;;;;;;;15.22;57.35;100840.28;5056884;28;20053;-77
2022/03/28 10:07:26;;;;;;;;;;;;;;;15.19;57.57;100846.16;5040963;28;20063;-76
2022/03/28 10:09:53;;;;;;;16.25;7.03;;;;;;;15.27;57.60;100837.72;5056409;28;19913;-77
2022/03/28 10:12:19;;;;;;;18.60;7.22;;;;;;;15.48;56.35;100836.44;5037588;28;20021;-77
2022/03/28 10:14:47;;;;;;;16.95;6.97;;;;;;;15.41;56.42;100838.38;5055899;28;20021;-78
2022/03/28 10:17:13;;;;;;;19.50;7.85;;;;;;;15.36;56.26;100828.22;5039961;28;20053;-77
2022/03/28 10:19:38;;;;;;;16.88;7.28;;;;;;;15.39;56.18;100835.09;5059401;28;20021;-78
2022/03/28 10:22:10;;;;;;;18.55;7.65;;;;;;;15.44;56.10;100830.63;5061446;28;20041;-77
2022/03/28 10:24:36;;;;;;;17.08;7.90;;;;;;;15.52;55.78;100824.91;5058254;28;20029;-77
2022/03/28 10:27:04;;;;;;;18.42;8.18;;;;;;;15.52;55.80;100814.03;5056810;28;20024;-78
2022/03/28 10:29:37;;;;;;;20.35;8.25;;;;;;;15.89;54.92;100812.13;5054703;28;20032;-77
2022/03/28 10:32:22;;;;;;;16.85;7.25;;;;;;;15.85;54.80;100810.09;5054205;28;20033;-78
2022/03/28 10:34:53;;;;;;;16.67;7.25;;;;;;;16.03;54.37;100810.03;5053917;28;20049;-78
2022/03/28 10:37:43;;;;;;;17.90;7.15;;;;;;;15.91;54.27;100803.75;5036462;28;20069;-77
2022/03/28 10:40:23;;;;;;;18.02;8.18;;;;;;;16.04;53.89;100795.38;5054238;28;20044;-77
2022/03/28 10:42:53;;;;;;;19.35;7.82;;;;;;;16.23;53.45;100798.88;5054361;28;20080;-77
2022/03/28 10:45:21;;;;;;;15.82;6.50;;;;;;;16.14;54.06;100800.25;5054138;28;20024;-78
2022/03/28 10:47:53;;;;;;;19.10;7.32;;;;;;;16.30;53.18;100791.44;5055161;28;20478;-78
2022/03/28 10:50:31;;;;;;;16.23;7.20;;;;;;;16.44;52.93;100786.63;5054910;28;20601;-78
2022/03/28 10:53:08;;;;;;;19.92;7.85;;;;;;;16.41;53.22;100787.09;5055913;28;20031;-78
2022/03/28 10:55:49;;;;;;;19.55;7.05;;;;;;;16.48;52.48;100780.44;5056733;28;20025;-78
2022/03/28 10:58:35;;;;;;;16.55;7.03;;;;;;;16.70;52.60;100788.91;5057030;28;20494;-79
2022/03/28 11:01:13;;;;;;;18.13;6.87;;;;;;;16.76;51.52;100782.53;5057324;28;20105;-78
2022/03/28 11:03:42;;;;;;;21.90;7.55;;;;;;;16.53;51.97;100777.84;5037704;28;20047;-78
2022/03/28 11:06:07;;;;;;;18.40;6.93;;;;;;;16.64;52.33;100773.53;5055018;28;20103;-78
2022/03/28 11:08:38;;;;;;;19.00;8.30;;;;;;;16.71;52.10;100770.69;5054822;28;20036;-78
2022/03/28 11:11:23;;;;;;;18.92;8.98;;;;;;;16.59;52.38;100765.22;5055397;28;20037;-78
2022/03/28 11:14:03;;;;;;;19.60;7.63;;;;;;;16.61;51.98;100766.66;5058561;28;20041;-78
2022/03/28 11:16:42;;;;;;;21.08;9.13;;;;;;;16.76;52.42;100758.03;5054913;28;20391;-78
2022/03/28 11:19:33;;;;;;;19.17;7.88;;;;;;;16.98;51.26;100758.25;5057886;28;20459;-79
2022/03/28 11:22:08;;;;;;;15.60;7.25;;;;;;;17.36;51.31;100746.81;5056364;28;20078;-78
2022/03/28 11:24:58;;;;;;;20.77;7.63;;;;;;;17.45;49.75;100748.06;5055054;28;20113;-78
2022/03/28 11:27:32;;;;;;;16.67;7.70;;;;;;;17.37;50.06;100744.91;5055140;28;20340;-78
2022/03/28 11:30:06;;;;;;;17.27;8.40;;;;;;;17.83;49.65;100746.66;5054892;28;20029;-78